sensor_id;sensor_type;location;lat;lon;timestamp;temperature;humidity
23271;DHT22;11804;51.118;17.058;2023-03-12T00:01:16;0.20;99.90
23271;DHT22;11804;51.118;17.058;2023-03-12T00:03:40;0.20;99.90
23271;DHT22;11804;51.118;17.058;2023-03-12T00:06:09;0.20;99.90
23271;DHT22;11804;51.118;17.058;2023-03-12T00:08:37;0.20;99.90
23271;DHT22;11804;51.118;17.058;2023-03-12T00:11:09;0.20;99.90
23271;DHT22;11804;51.118;17.058;2023-03-12T00:13:37;0.20;99.90
23271;DHT22;11804;51.118;17.058;2023-03-12T00:16:10;0.20;99.90
23271;DHT22;11804;51.118;17.058;2023-03-12T00:18:39;0.20;99.90
23271;DHT22;11804;51.118;17.058;2023-03-12T00:21:07;0.20;99.90
23271;DHT22;11804;51.118;17.058;2023-03-12T00:23:35;0.20;99.90
23271;DHT22;11804;51.118;17.058;2023-03-12T00:26:10;0.20;99.90
23271;DHT22;11804;51.118;17.058;2023-03-12T00:28:34;0.20;99.90
23271;DHT22;11804;51.118;17.058;2023-03-12T00:31:12;0.20;99.90
23271;DHT22;11804;51.118;17.058;2023-03-12T00:33:32;0.20;99.90
23271;DHT22;11804;51.118;17.058;2023-03-12T00:36:00;0.20;99.90
23271;DHT22;11804;51.118;17.058;2023-03-12T00:38:27;0.20;99.90
23271;DHT22;11804;51.118;17.058;2023-03-12T00:40:55;0.20;99.90
23271;DHT22;11804;51.118;17.058;2023-03-12T00:43:23;0.20;99.90
23271;DHT22;11804;51.118;17.058;2023-03-12T00:45:50;0.20;99.90
23271;DHT22;11804;51.118;17.058;2023-03-12T00:48:18;0.10;99.90
23271;DHT22;11804;51.118;17.058;2023-03-12T00:50:45;0.20;99.90
23271;DHT22;11804;51.118;17.058;2023-03-12T00:53:13;0.20;99.90
23271;DHT22;11804;51.118;17.058;2023-03-12T00:55:41;0.20;99.90
23271;DHT22;11804;51.118;17.058;2023-03-12T00:58:08;0.20;99.90
23271;DHT22;11804;51.118;17.058;2023-03-12T01:00:36;0.10;99.90
23271;DHT22;11804;51.118;17.058;2023-03-12T01:03:04;0.10;99.90
23271;DHT22;11804;51.118;17.058;2023-03-12T01:05:31;0.10;99.90
23271;DHT22;11804;51.118;17.058;2023-03-12T01:08:01;0.20;99.90
23271;DHT22;11804;51.118;17.058;2023-03-12T01:10:28;0.20;99.90
23271;DHT22;11804;51.118;17.058;2023-03-12T01:12:56;0.20;99.90
23271;DHT22;11804;51.118;17.058;2023-03-12T01:15:24;0.20;99.90
23271;DHT22;11804;51.118;17.058;2023-03-12T01:17:52;0.10;99.90
23271;DHT22;11804;51.118;17.058;2023-03-12T01:20:20;0.10;99.90
23271;DHT22;11804;51.118;17.058;2023-03-12T01:22:49;0.10;99.90
23271;DHT22;11804;51.118;17.058;2023-03-12T01:25:17;0.20;99.90
23271;DHT22;11804;51.118;17.058;2023-03-12T01:27:45;0.20;99.90
23271;DHT22;11804;51.118;17.058;2023-03-12T01:30:13;0.20;99.90
23271;DHT22;11804;51.118;17.058;2023-03-12T01:32:41;0.20;99.90
23271;DHT22;11804;51.118;17.058;2023-03-12T01:35:09;0.20;99.90
23271;DHT22;11804;51.118;17.058;2023-03-12T01:37:37;0.20;99.90
23271;DHT22;11804;51.118;17.058;2023-03-12T01:40:05;0.20;99.90
23271;DHT22;11804;51.118;17.058;2023-03-12T01:42:33;0.20;99.90
23271;DHT22;11804;51.118;17.058;2023-03-12T01:45:02;0.20;99.90
23271;DHT22;11804;51.118;17.058;2023-03-12T01:47:30;0.20;99.90
23271;DHT22;11804;51.118;17.058;2023-03-12T01:49:59;0.10;99.90
23271;DHT22;11804;51.118;17.058;2023-03-12T01:52:34;0.10;99.90
23271;DHT22;11804;51.118;17.058;2023-03-12T01:55:03;0.20;99.90
23271;DHT22;11804;51.118;17.058;2023-03-12T02:00:13;0.20;99.90
23271;DHT22;11804;51.118;17.058;2023-03-12T02:02:43;0.20;99.90
23271;DHT22;11804;51.118;17.058;2023-03-12T02:05:15;0.10;99.90
23271;DHT22;11804;51.118;17.058;2023-03-12T02:07:42;0.10;99.90
23271;DHT22;11804;51.118;17.058;2023-03-12T02:10:10;0.20;99.90
23271;DHT22;11804;51.118;17.058;2023-03-12T02:12:38;0.20;99.90
23271;DHT22;11804;51.118;17.058;2023-03-12T02:15:06;0.30;99.90
23271;DHT22;11804;51.118;17.058;2023-03-12T02:17:36;0.30;99.90
23271;DHT22;11804;51.118;17.058;2023-03-12T02:20:19;0.30;99.90
23271;DHT22;11804;51.118;17.058;2023-03-12T02:22:58;0.40;99.90
23271;DHT22;11804;51.118;17.058;2023-03-12T02:25:30;0.40;99.90
23271;DHT22;11804;51.118;17.058;2023-03-12T02:27:59;0.30;99.90
23271;DHT22;11804;51.118;17.058;2023-03-12T02:30:29;0.40;99.90
23271;DHT22;11804;51.118;17.058;2023-03-12T02:33:00;0.40;99.90
23271;DHT22;11804;51.118;17.058;2023-03-12T02:35:28;0.40;99.90
23271;DHT22;11804;51.118;17.058;2023-03-12T02:37:56;0.30;99.90
23271;DHT22;11804;51.118;17.058;2023-03-12T02:40:26;0.40;99.90
23271;DHT22;11804;51.118;17.058;2023-03-12T02:42:54;0.30;99.90
23271;DHT22;11804;51.118;17.058;2023-03-12T02:45:24;0.30;99.90
23271;DHT22;11804;51.118;17.058;2023-03-12T02:47:52;0.30;99.90
23271;DHT22;11804;51.118;17.058;2023-03-12T02:50:20;0.30;99.90
23271;DHT22;11804;51.118;17.058;2023-03-12T02:52:48;0.30;99.90
23271;DHT22;11804;51.118;17.058;2023-03-12T02:55:17;0.30;99.90
23271;DHT22;11804;51.118;17.058;2023-03-12T02:57:44;0.30;99.90
23271;DHT22;11804;51.118;17.058;2023-03-12T03:00:13;0.30;99.90
23271;DHT22;11804;51.118;17.058;2023-03-12T03:02:42;0.30;99.90
23271;DHT22;11804;51.118;17.058;2023-03-12T03:05:11;0.30;99.90
23271;DHT22;11804;51.118;17.058;2023-03-12T03:07:38;0.20;99.90
23271;DHT22;11804;51.118;17.058;2023-03-12T03:10:07;0.20;99.90
23271;DHT22;11804;51.118;17.058;2023-03-12T03:12:36;0.30;99.90
23271;DHT22;11804;51.118;17.058;2023-03-12T03:15:05;0.30;99.90
23271;DHT22;11804;51.118;17.058;2023-03-12T03:17:33;0.30;99.90
23271;DHT22;11804;51.118;17.058;2023-03-12T03:20:00;0.30;99.90
23271;DHT22;11804;51.118;17.058;2023-03-12T03:22:30;0.30;99.90
23271;DHT22;11804;51.118;17.058;2023-03-12T03:24:57;0.30;99.90
23271;DHT22;11804;51.118;17.058;2023-03-12T03:27:25;0.40;99.90
23271;DHT22;11804;51.118;17.058;2023-03-12T03:29:52;0.40;99.90
23271;DHT22;11804;51.118;17.058;2023-03-12T03:32:20;0.30;99.90
23271;DHT22;11804;51.118;17.058;2023-03-12T03:34:47;0.40;99.90
23271;DHT22;11804;51.118;17.058;2023-03-12T03:37:15;0.40;99.90
23271;DHT22;11804;51.118;17.058;2023-03-12T03:39:43;0.40;99.90
23271;DHT22;11804;51.118;17.058;2023-03-12T03:42:10;0.30;99.90
23271;DHT22;11804;51.118;17.058;2023-03-12T03:44:38;0.30;99.90
23271;DHT22;11804;51.118;17.058;2023-03-12T03:47:07;0.40;99.90
23271;DHT22;11804;51.118;17.058;2023-03-12T03:49:35;0.40;99.90
23271;DHT22;11804;51.118;17.058;2023-03-12T03:52:02;0.40;99.90
23271;DHT22;11804;51.118;17.058;2023-03-12T03:54:30;0.40;99.90
23271;DHT22;11804;51.118;17.058;2023-03-12T03:56:59;0.40;99.90
23271;DHT22;11804;51.118;17.058;2023-03-12T03:59:28;0.40;99.90
23271;DHT22;11804;51.118;17.058;2023-03-12T04:01:55;0.40;99.90
23271;DHT22;11804;51.118;17.058;2023-03-12T04:04:23;0.40;99.90
23271;DHT22;11804;51.118;17.058;2023-03-12T04:06:51;0.40;99.90
23271;DHT22;11804;51.118;17.058;2023-03-12T04:09:18;0.50;99.90
23271;DHT22;11804;51.118;17.058;2023-03-12T04:11:46;0.40;99.90
23271;DHT22;11804;51.118;17.058;2023-03-12T04:14:13;0.50;99.90
23271;DHT22;11804;51.118;17.058;2023-03-12T04:16:41;0.40;99.90
23271;DHT22;11804;51.118;17.058;2023-03-12T04:19:11;0.50;99.90
23271;DHT22;11804;51.118;17.058;2023-03-12T04:21:39;0.50;99.90
23271;DHT22;11804;51.118;17.058;2023-03-12T04:24:07;0.50;99.90
23271;DHT22;11804;51.118;17.058;2023-03-12T04:26:37;0.60;99.90
23271;DHT22;11804;51.118;17.058;2023-03-12T04:29:04;0.70;99.90
23271;DHT22;11804;51.118;17.058;2023-03-12T04:31:32;0.80;99.90
23271;DHT22;11804;51.118;17.058;2023-03-12T04:34:00;0.80;99.90
23271;DHT22;11804;51.118;17.058;2023-03-12T04:36:28;0.80;99.90
23271;DHT22;11804;51.118;17.058;2023-03-12T04:38:56;0.80;99.90
23271;DHT22;11804;51.118;17.058;2023-03-12T04:41:23;0.90;99.90
23271;DHT22;11804;51.118;17.058;2023-03-12T04:43:51;0.90;99.90
23271;DHT22;11804;51.118;17.058;2023-03-12T04:46:19;0.90;99.90
23271;DHT22;11804;51.118;17.058;2023-03-12T04:48:46;0.90;99.90
23271;DHT22;11804;51.118;17.058;2023-03-12T04:51:14;0.90;99.90
23271;DHT22;11804;51.118;17.058;2023-03-12T04:53:42;0.80;99.90
23271;DHT22;11804;51.118;17.058;2023-03-12T04:56:10;0.80;99.90
23271;DHT22;11804;51.118;17.058;2023-03-12T04:58:38;0.80;99.90
23271;DHT22;11804;51.118;17.058;2023-03-12T05:01:05;0.80;99.90
23271;DHT22;11804;51.118;17.058;2023-03-12T05:03:33;0.80;99.90
23271;DHT22;11804;51.118;17.058;2023-03-12T05:06:01;0.80;99.90
23271;DHT22;11804;51.118;17.058;2023-03-12T05:08:29;0.80;99.90
23271;DHT22;11804;51.118;17.058;2023-03-12T05:10:56;0.80;99.90
23271;DHT22;11804;51.118;17.058;2023-03-12T05:13:24;0.70;99.90
23271;DHT22;11804;51.118;17.058;2023-03-12T05:15:51;0.70;99.90
23271;DHT22;11804;51.118;17.058;2023-03-12T05:18:19;0.70;99.90
23271;DHT22;11804;51.118;17.058;2023-03-12T05:20:56;0.70;99.90
23271;DHT22;11804;51.118;17.058;2023-03-12T05:23:16;0.70;99.90
23271;DHT22;11804;51.118;17.058;2023-03-12T05:25:44;0.70;99.90
23271;DHT22;11804;51.118;17.058;2023-03-12T05:28:11;0.80;99.90
23271;DHT22;11804;51.118;17.058;2023-03-12T05:30:39;0.70;99.90
23271;DHT22;11804;51.118;17.058;2023-03-12T05:33:07;0.70;99.90
23271;DHT22;11804;51.118;17.058;2023-03-12T05:35:34;0.70;99.90
23271;DHT22;11804;51.118;17.058;2023-03-12T05:38:02;0.80;99.90
23271;DHT22;11804;51.118;17.058;2023-03-12T05:40:30;0.80;99.90
23271;DHT22;11804;51.118;17.058;2023-03-12T05:42:58;0.80;99.90
23271;DHT22;11804;51.118;17.058;2023-03-12T05:45:28;0.80;99.90
23271;DHT22;11804;51.118;17.058;2023-03-12T05:47:55;0.90;99.90
23271;DHT22;11804;51.118;17.058;2023-03-12T05:50:24;0.90;99.90
23271;DHT22;11804;51.118;17.058;2023-03-12T05:52:52;1.00;99.50
23271;DHT22;11804;51.118;17.058;2023-03-12T05:55:20;1.10;99.30
23271;DHT22;11804;51.118;17.058;2023-03-12T05:57:47;1.10;98.70
23271;DHT22;11804;51.118;17.058;2023-03-12T06:00:16;1.10;98.40
23271;DHT22;11804;51.118;17.058;2023-03-12T06:02:43;1.10;99.30
23271;DHT22;11804;51.118;17.058;2023-03-12T06:05:11;1.10;99.00
23271;DHT22;11804;51.118;17.058;2023-03-12T06:07:39;1.30;98.40
23271;DHT22;11804;51.118;17.058;2023-03-12T06:10:08;1.40;97.10
23271;DHT22;11804;51.118;17.058;2023-03-12T06:12:36;1.50;96.80
23271;DHT22;11804;51.118;17.058;2023-03-12T06:15:04;1.50;96.60
23271;DHT22;11804;51.118;17.058;2023-03-12T06:17:32;1.40;96.10
23271;DHT22;11804;51.118;17.058;2023-03-12T06:19:59;1.40;96.40
23271;DHT22;11804;51.118;17.058;2023-03-12T06:22:27;1.60;97.10
23271;DHT22;11804;51.118;17.058;2023-03-12T06:24:55;1.90;95.80
23271;DHT22;11804;51.118;17.058;2023-03-12T06:27:23;2.20;94.40
23271;DHT22;11804;51.118;17.058;2023-03-12T06:29:51;2.30;93.20
23271;DHT22;11804;51.118;17.058;2023-03-12T06:32:18;2.20;92.60
23271;DHT22;11804;51.118;17.058;2023-03-12T06:34:46;2.30;92.80
23271;DHT22;11804;51.118;17.058;2023-03-12T06:37:14;2.30;92.90
23271;DHT22;11804;51.118;17.058;2023-03-12T06:39:42;2.20;92.70
23271;DHT22;11804;51.118;17.058;2023-03-12T06:42:09;2.20;92.90
23271;DHT22;11804;51.118;17.058;2023-03-12T06:44:38;2.10;93.30
23271;DHT22;11804;51.118;17.058;2023-03-12T06:47:06;2.20;93.20
23271;DHT22;11804;51.118;17.058;2023-03-12T06:49:33;2.20;93.30
23271;DHT22;11804;51.118;17.058;2023-03-12T06:52:03;2.30;93.10
23271;DHT22;11804;51.118;17.058;2023-03-12T06:54:31;2.40;92.60
23271;DHT22;11804;51.118;17.058;2023-03-12T06:56:58;2.50;92.60
23271;DHT22;11804;51.118;17.058;2023-03-12T06:59:26;2.70;91.90
23271;DHT22;11804;51.118;17.058;2023-03-12T07:01:54;2.80;91.40
23271;DHT22;11804;51.118;17.058;2023-03-12T07:04:22;2.80;91.00
23271;DHT22;11804;51.118;17.058;2023-03-12T07:06:50;2.70;91.40
23271;DHT22;11804;51.118;17.058;2023-03-12T07:09:18;2.70;91.70
23271;DHT22;11804;51.118;17.058;2023-03-12T07:11:46;2.60;92.40
23271;DHT22;11804;51.118;17.058;2023-03-12T07:14:14;2.70;92.10
23271;DHT22;11804;51.118;17.058;2023-03-12T07:16:41;2.70;91.70
23271;DHT22;11804;51.118;17.058;2023-03-12T07:19:09;2.60;92.10
23271;DHT22;11804;51.118;17.058;2023-03-12T07:21:36;2.60;92.30
23271;DHT22;11804;51.118;17.058;2023-03-12T07:24:04;2.60;92.60
23271;DHT22;11804;51.118;17.058;2023-03-12T07:26:34;2.60;92.40
23271;DHT22;11804;51.118;17.058;2023-03-12T07:29:03;3.00;91.90
23271;DHT22;11804;51.118;17.058;2023-03-12T07:31:31;3.40;91.10
23271;DHT22;11804;51.118;17.058;2023-03-12T07:33:58;3.70;90.10
23271;DHT22;11804;51.118;17.058;2023-03-12T07:36:28;3.70;88.10
23271;DHT22;11804;51.118;17.058;2023-03-12T07:38:56;3.80;87.70
23271;DHT22;11804;51.118;17.058;2023-03-12T07:41:23;3.70;88.00
23271;DHT22;11804;51.118;17.058;2023-03-12T07:43:51;3.60;88.60
23271;DHT22;11804;51.118;17.058;2023-03-12T07:46:18;3.80;88.90
23271;DHT22;11804;51.118;17.058;2023-03-12T07:48:46;3.70;87.90
23271;DHT22;11804;51.118;17.058;2023-03-12T07:51:13;3.60;88.30
23271;DHT22;11804;51.118;17.058;2023-03-12T07:53:41;3.50;88.50
23271;DHT22;11804;51.118;17.058;2023-03-12T07:56:09;3.40;88.10
23271;DHT22;11804;51.118;17.058;2023-03-12T07:58:36;3.50;88.90
23271;DHT22;11804;51.118;17.058;2023-03-12T08:01:05;3.70;88.80
23271;DHT22;11804;51.118;17.058;2023-03-12T08:03:33;3.80;89.70
23271;DHT22;11804;51.118;17.058;2023-03-12T08:06:03;3.80;88.00
23271;DHT22;11804;51.118;17.058;2023-03-12T08:08:31;3.90;87.00
23271;DHT22;11804;51.118;17.058;2023-03-12T08:10:59;3.90;87.10
23271;DHT22;11804;51.118;17.058;2023-03-12T08:13:27;3.80;86.80
23271;DHT22;11804;51.118;17.058;2023-03-12T08:15:54;3.90;85.90
23271;DHT22;11804;51.118;17.058;2023-03-12T08:18:22;3.90;85.90
23271;DHT22;11804;51.118;17.058;2023-03-12T08:20:52;4.10;85.80
23271;DHT22;11804;51.118;17.058;2023-03-12T08:23:21;4.20;85.00
23271;DHT22;11804;51.118;17.058;2023-03-12T08:25:49;4.30;84.90
23271;DHT22;11804;51.118;17.058;2023-03-12T08:28:18;4.80;83.90
23271;DHT22;11804;51.118;17.058;2023-03-12T08:30:54;5.10;82.20
23271;DHT22;11804;51.118;17.058;2023-03-12T08:33:17;5.30;80.80
23271;DHT22;11804;51.118;17.058;2023-03-12T08:35:45;5.10;80.10
23271;DHT22;11804;51.118;17.058;2023-03-12T08:38:13;4.90;82.10
23271;DHT22;11804;51.118;17.058;2023-03-12T08:40:40;4.70;82.80
23271;DHT22;11804;51.118;17.058;2023-03-12T08:43:08;4.80;83.20
23271;DHT22;11804;51.118;17.058;2023-03-12T08:45:36;5.10;82.20
23271;DHT22;11804;51.118;17.058;2023-03-12T08:48:04;5.70;80.40
23271;DHT22;11804;51.118;17.058;2023-03-12T08:50:32;6.40;77.40
23271;DHT22;11804;51.118;17.058;2023-03-12T08:53:00;7.00;75.60
23271;DHT22;11804;51.118;17.058;2023-03-12T08:55:28;7.60;72.10
23271;DHT22;11804;51.118;17.058;2023-03-12T08:57:56;7.70;70.40
23271;DHT22;11804;51.118;17.058;2023-03-12T09:00:23;7.60;70.40
23271;DHT22;11804;51.118;17.058;2023-03-12T09:02:51;8.00;69.80
23271;DHT22;11804;51.118;17.058;2023-03-12T09:05:19;8.70;68.30
23271;DHT22;11804;51.118;17.058;2023-03-12T09:07:47;8.80;65.60
23271;DHT22;11804;51.118;17.058;2023-03-12T09:10:16;9.50;62.80
23271;DHT22;11804;51.118;17.058;2023-03-12T09:12:44;10.00;61.40
23271;DHT22;11804;51.118;17.058;2023-03-12T09:15:11;9.80;61.70
23271;DHT22;11804;51.118;17.058;2023-03-12T09:17:39;10.00;61.80
23271;DHT22;11804;51.118;17.058;2023-03-12T09:20:09;10.50;60.40
23271;DHT22;11804;51.118;17.058;2023-03-12T09:22:42;10.30;58.60
23271;DHT22;11804;51.118;17.058;2023-03-12T09:25:11;9.90;59.90
23271;DHT22;11804;51.118;17.058;2023-03-12T09:27:41;8.50;61.80
23271;DHT22;11804;51.118;17.058;2023-03-12T09:30:16;7.40;66.00
23271;DHT22;11804;51.118;17.058;2023-03-12T09:32:39;7.10;68.60
23271;DHT22;11804;51.118;17.058;2023-03-12T09:35:08;7.80;68.80
23271;DHT22;11804;51.118;17.058;2023-03-12T09:37:35;9.00;65.00
23271;DHT22;11804;51.118;17.058;2023-03-12T09:40:03;10.00;61.30
23271;DHT22;11804;51.118;17.058;2023-03-12T09:45:25;9.30;61.50
23271;DHT22;11804;51.118;17.058;2023-03-12T09:47:58;9.30;61.60
23271;DHT22;11804;51.118;17.058;2023-03-12T09:50:34;9.30;61.00
23271;DHT22;11804;51.118;17.058;2023-03-12T09:55:55;9.60;62.20
23271;DHT22;11804;51.118;17.058;2023-03-12T09:58:34;10.20;60.50
23271;DHT22;11804;51.118;17.058;2023-03-12T10:04:32;10.00;59.30
23271;DHT22;11804;51.118;17.058;2023-03-12T10:10:26;9.50;61.60
23271;DHT22;11804;51.118;17.058;2023-03-12T10:13:03;10.00;59.80
23271;DHT22;11804;51.118;17.058;2023-03-12T10:26:49;9.30;62.30
23271;DHT22;11804;51.118;17.058;2023-03-12T10:37:27;9.50;61.70
23271;DHT22;11804;51.118;17.058;2023-03-12T10:39:55;9.40;62.50
23271;DHT22;11804;51.118;17.058;2023-03-12T10:42:25;9.60;61.40
23271;DHT22;11804;51.118;17.058;2023-03-12T10:44:57;10.00;61.10
23271;DHT22;11804;51.118;17.058;2023-03-12T10:47:38;10.40;59.90
23271;DHT22;11804;51.118;17.058;2023-03-12T10:50:23;10.80;59.10
23271;DHT22;11804;51.118;17.058;2023-03-12T10:53:29;10.80;57.80
23271;DHT22;11804;51.118;17.058;2023-03-12T10:58:33;9.30;61.00
23271;DHT22;11804;51.118;17.058;2023-03-12T11:01:03;9.60;60.60
23271;DHT22;11804;51.118;17.058;2023-03-12T11:03:31;9.70;59.30
23271;DHT22;11804;51.118;17.058;2023-03-12T11:06:01;9.80;59.00
23271;DHT22;11804;51.118;17.058;2023-03-12T11:08:34;9.60;58.40
23271;DHT22;11804;51.118;17.058;2023-03-12T11:11:03;9.30;59.60
23271;DHT22;11804;51.118;17.058;2023-03-12T11:13:33;8.90;60.30
23271;DHT22;11804;51.118;17.058;2023-03-12T11:19:09;8.60;61.00
23271;DHT22;11804;51.118;17.058;2023-03-12T11:21:34;8.10;62.70
23271;DHT22;11804;51.118;17.058;2023-03-12T11:24:12;8.00;63.30
23271;DHT22;11804;51.118;17.058;2023-03-12T11:27:16;7.80;62.80
23271;DHT22;11804;51.118;17.058;2023-03-12T11:29:43;8.00;62.90
23271;DHT22;11804;51.118;17.058;2023-03-12T11:32:30;8.10;64.00
23271;DHT22;11804;51.118;17.058;2023-03-12T11:34:56;8.10;63.90
23271;DHT22;11804;51.118;17.058;2023-03-12T11:51:56;8.00;63.40
23271;DHT22;11804;51.118;17.058;2023-03-12T12:07:44;7.50;60.70
23271;DHT22;11804;51.118;17.058;2023-03-12T12:19:21;7.90;60.20
23271;DHT22;11804;51.118;17.058;2023-03-12T12:22:02;7.90;60.20
23271;DHT22;11804;51.118;17.058;2023-03-12T12:24:49;7.70;60.30
23271;DHT22;11804;51.118;17.058;2023-03-12T12:27:28;7.80;59.60
23271;DHT22;11804;51.118;17.058;2023-03-12T12:35:10;8.20;61.10
23271;DHT22;11804;51.118;17.058;2023-03-12T12:37:42;8.10;61.00
23271;DHT22;11804;51.118;17.058;2023-03-12T12:45:38;8.30;60.50
23271;DHT22;11804;51.118;17.058;2023-03-12T12:48:21;7.90;58.10
23271;DHT22;11804;51.118;17.058;2023-03-12T12:50:50;7.90;58.80
23271;DHT22;11804;51.118;17.058;2023-03-12T12:53:31;7.70;60.60
23271;DHT22;11804;51.118;17.058;2023-03-12T12:56:18;7.70;60.80
23271;DHT22;11804;51.118;17.058;2023-03-12T13:01:23;8.00;59.90
23271;DHT22;11804;51.118;17.058;2023-03-12T13:03:53;8.20;60.20
23271;DHT22;11804;51.118;17.058;2023-03-12T13:06:26;8.10;59.40
23271;DHT22;11804;51.118;17.058;2023-03-12T13:09:00;8.10;59.90
23271;DHT22;11804;51.118;17.058;2023-03-12T13:11:39;8.10;60.10
23271;DHT22;11804;51.118;17.058;2023-03-12T13:14:14;8.20;59.90
23271;DHT22;11804;51.118;17.058;2023-03-12T13:16:43;8.30;59.90
23271;DHT22;11804;51.118;17.058;2023-03-12T13:21:52;8.70;59.60
23271;DHT22;11804;51.118;17.058;2023-03-12T13:24:21;8.80;58.80
23271;DHT22;11804;51.118;17.058;2023-03-12T13:26:52;8.80;58.80
23271;DHT22;11804;51.118;17.058;2023-03-12T13:32:01;8.60;58.20
23271;DHT22;11804;51.118;17.058;2023-03-12T13:34:44;8.50;59.00
23271;DHT22;11804;51.118;17.058;2023-03-12T13:37:26;8.20;59.60
23271;DHT22;11804;51.118;17.058;2023-03-12T13:39:50;8.20;59.50
23271;DHT22;11804;51.118;17.058;2023-03-12T13:42:32;8.20;60.10
23271;DHT22;11804;51.118;17.058;2023-03-12T13:44:55;8.30;60.30
23271;DHT22;11804;51.118;17.058;2023-03-12T13:47:29;8.30;60.10
23271;DHT22;11804;51.118;17.058;2023-03-12T13:50:20;8.20;59.70
23271;DHT22;11804;51.118;17.058;2023-03-12T13:52:47;8.10;60.50
23271;DHT22;11804;51.118;17.058;2023-03-12T13:55:31;8.00;60.30
23271;DHT22;11804;51.118;17.058;2023-03-12T13:58:08;8.00;60.60
23271;DHT22;11804;51.118;17.058;2023-03-12T14:00:47;7.90;60.50
23271;DHT22;11804;51.118;17.058;2023-03-12T14:03:19;8.10;61.70
23271;DHT22;11804;51.118;17.058;2023-03-12T14:06:07;8.10;61.00
23271;DHT22;11804;51.118;17.058;2023-03-12T14:16:54;8.20;61.30
23271;DHT22;11804;51.118;17.058;2023-03-12T14:19:31;8.20;61.10
23271;DHT22;11804;51.118;17.058;2023-03-12T14:22:05;8.30;61.90
23271;DHT22;11804;51.118;17.058;2023-03-12T14:24:41;8.40;60.80
23271;DHT22;11804;51.118;17.058;2023-03-12T14:27:16;8.30;60.90
23271;DHT22;11804;51.118;17.058;2023-03-12T14:29:51;8.20;61.40
23271;DHT22;11804;51.118;17.058;2023-03-12T14:32:21;8.10;61.20
23271;DHT22;11804;51.118;17.058;2023-03-12T14:34:51;8.00;61.60
23271;DHT22;11804;51.118;17.058;2023-03-12T14:37:27;7.90;62.10
23271;DHT22;11804;51.118;17.058;2023-03-12T14:42:36;7.90;62.60
23271;DHT22;11804;51.118;17.058;2023-03-12T14:47:42;7.80;63.00
23271;DHT22;11804;51.118;17.058;2023-03-12T14:50:25;7.60;62.70
23271;DHT22;11804;51.118;17.058;2023-03-12T14:52:55;7.60;63.90
23271;DHT22;11804;51.118;17.058;2023-03-12T14:55:25;7.60;64.20
23271;DHT22;11804;51.118;17.058;2023-03-12T14:58:04;7.60;64.10
23271;DHT22;11804;51.118;17.058;2023-03-12T15:00:33;7.50;64.30
23271;DHT22;11804;51.118;17.058;2023-03-12T15:03:03;7.50;64.90
23271;DHT22;11804;51.118;17.058;2023-03-12T15:05:31;7.50;64.40
23271;DHT22;11804;51.118;17.058;2023-03-12T15:08:02;7.50;64.50
23271;DHT22;11804;51.118;17.058;2023-03-12T15:10:31;7.50;64.50
23271;DHT22;11804;51.118;17.058;2023-03-12T15:13:00;7.50;64.40
23271;DHT22;11804;51.118;17.058;2023-03-12T15:15:40;7.50;64.60
23271;DHT22;11804;51.118;17.058;2023-03-12T15:18:14;7.50;65.60
23271;DHT22;11804;51.118;17.058;2023-03-12T15:20:42;7.30;64.60
23271;DHT22;11804;51.118;17.058;2023-03-12T15:23:11;7.20;65.30
23271;DHT22;11804;51.118;17.058;2023-03-12T15:25:41;7.20;65.60
23271;DHT22;11804;51.118;17.058;2023-03-12T15:30:44;7.10;64.40
23271;DHT22;11804;51.118;17.058;2023-03-12T15:38:59;6.90;63.90
23271;DHT22;11804;51.118;17.058;2023-03-12T15:41:41;7.00;64.20
23271;DHT22;11804;51.118;17.058;2023-03-12T15:44:19;6.90;63.70
23271;DHT22;11804;51.118;17.058;2023-03-12T15:46:53;6.90;64.20
23271;DHT22;11804;51.118;17.058;2023-03-12T15:49:28;6.80;61.70
23271;DHT22;11804;51.118;17.058;2023-03-12T15:57:31;6.70;58.80
23271;DHT22;11804;51.118;17.058;2023-03-12T16:02:59;6.70;58.00
23271;DHT22;11804;51.118;17.058;2023-03-12T16:05:37;6.60;57.90
23271;DHT22;11804;51.118;17.058;2023-03-12T16:08:23;6.50;58.10
23271;DHT22;11804;51.118;17.058;2023-03-12T16:10:52;6.50;58.20
23271;DHT22;11804;51.118;17.058;2023-03-12T16:13:23;6.80;60.00
23271;DHT22;11804;51.118;17.058;2023-03-12T16:15:53;6.70;58.70
23271;DHT22;11804;51.118;17.058;2023-03-12T16:18:22;6.60;58.90
23271;DHT22;11804;51.118;17.058;2023-03-12T16:20:51;6.50;58.40
23271;DHT22;11804;51.118;17.058;2023-03-12T16:23:19;6.40;58.10
23271;DHT22;11804;51.118;17.058;2023-03-12T16:25:53;6.30;58.40
23271;DHT22;11804;51.118;17.058;2023-03-12T16:28:19;6.30;58.80
23271;DHT22;11804;51.118;17.058;2023-03-12T16:30:48;6.30;59.20
23271;DHT22;11804;51.118;17.058;2023-03-12T16:33:19;6.30;59.40
23271;DHT22;11804;51.118;17.058;2023-03-12T16:35:47;6.30;59.30
23271;DHT22;11804;51.118;17.058;2023-03-12T16:38:15;6.20;59.30
23271;DHT22;11804;51.118;17.058;2023-03-12T16:40:46;6.30;59.50
23271;DHT22;11804;51.118;17.058;2023-03-12T16:43:19;6.20;59.70
23271;DHT22;11804;51.118;17.058;2023-03-12T16:45:48;6.20;59.70
23271;DHT22;11804;51.118;17.058;2023-03-12T16:48:21;6.10;59.90
23271;DHT22;11804;51.118;17.058;2023-03-12T16:50:52;6.10;60.20
23271;DHT22;11804;51.118;17.058;2023-03-12T16:53:21;6.10;60.50
23271;DHT22;11804;51.118;17.058;2023-03-12T16:55:53;6.10;61.10
23271;DHT22;11804;51.118;17.058;2023-03-12T16:58:24;6.00;61.50
23271;DHT22;11804;51.118;17.058;2023-03-12T17:00:53;6.00;62.10
23271;DHT22;11804;51.118;17.058;2023-03-12T17:03:29;6.10;62.70
23271;DHT22;11804;51.118;17.058;2023-03-12T17:05:52;6.00;63.00
23271;DHT22;11804;51.118;17.058;2023-03-12T17:08:19;6.00;63.50
23271;DHT22;11804;51.118;17.058;2023-03-12T17:10:47;6.00;64.00
23271;DHT22;11804;51.118;17.058;2023-03-12T17:13:17;6.00;64.60
23271;DHT22;11804;51.118;17.058;2023-03-12T17:15:46;6.00;65.40
23271;DHT22;11804;51.118;17.058;2023-03-12T17:18:13;6.00;65.70
23271;DHT22;11804;51.118;17.058;2023-03-12T17:20:42;6.00;66.10
23271;DHT22;11804;51.118;17.058;2023-03-12T17:23:10;6.00;66.60
23271;DHT22;11804;51.118;17.058;2023-03-12T17:25:40;6.00;67.20
23271;DHT22;11804;51.118;17.058;2023-03-12T17:28:09;6.00;67.60
23271;DHT22;11804;51.118;17.058;2023-03-12T17:30:37;6.00;68.20
23271;DHT22;11804;51.118;17.058;2023-03-12T17:33:13;5.90;68.40
23271;DHT22;11804;51.118;17.058;2023-03-12T17:35:41;5.90;68.90
23271;DHT22;11804;51.118;17.058;2023-03-12T17:38:10;5.90;69.20
23271;DHT22;11804;51.118;17.058;2023-03-12T17:40:42;5.90;69.60
23271;DHT22;11804;51.118;17.058;2023-03-12T17:43:10;5.90;70.00
23271;DHT22;11804;51.118;17.058;2023-03-12T17:45:38;5.90;70.20
23271;DHT22;11804;51.118;17.058;2023-03-12T17:48:06;5.90;70.60
23271;DHT22;11804;51.118;17.058;2023-03-12T17:50:35;6.00;70.80
23271;DHT22;11804;51.118;17.058;2023-03-12T17:53:02;6.00;70.80